Thief River Falls, MN (56701)

12:08 PM CDT on March 23, 2017 (GMT -0500)
Royfus Funny Farm | | Change Station

Elev 1132 ft 48.12 °N, 96.17 °W | Updated 2 minutes ago

Rain
Rain
38.6 °F
Feels Like 36 °F
N
4.0
Wind Variable Wind from SW
Gusts 7.0 mph

Today
High -- | Low -- °F
--% Chance of Precip.
Yesterday
High -- | Low -- °F
Precip. -- in
Pressure 29.86 in
Visibility 2.5 miles
Clouds Scattered Clouds 2600 ft
Mostly Cloudy 4200 ft
Overcast 6500 ft
Windchill 36 °F
Dew Point 28 °F
Humidity 66%
Rainfall 0.00 in
Snow Depth Not available.
7:20 AM 7:42 PM
Waning Crescent, 22% visible
METAR KCKN 231654Z AUTO 20015KT 2 1/2SM UP SCT026 BKN042 OVC065 01/01 A2986 RMK AO2 P0003
Pressure 29.86 in
Visibility 2.5 miles
Clouds Scattered Clouds 2600 ft
Mostly Cloudy 4200 ft
Overcast 6500 ft
Windchill 36 °F
Dew Point 28 °F
Humidity 66%
Rainfall 0.00 in
Snow Depth Not available.
7:20 AM 7:42 PM
Waning Crescent, 22% visible
METAR KCKN 231654Z AUTO 20015KT 2 1/2SM UP SCT026 BKN042 OVC065 01/01 A2986 RMK AO2 P0003

Get Severe Weather Alerts

Thanks for signing up!

Be on the lookout for a verification email in your inbox.

You'll start receiving the daily forecast at 8 AM.

×

10-Day Weather Forecast

Almanac

Astronomy

Mar. 23, 2017 Rise Set
Actual Time
Civil Twilight
Nautical Twilight
Astronomical Twilight
Moon
Length of Visible Light
Length of Day
Tomorrow will be .
, % of the Moon is Illuminated

Today's Extremes

State Highs State Lows

Community

WunderPhotos

Upload Photos

1,962,540 photos uploaded!

WunderBlog® & News

Nearby

Air Quality

  Air Quality AQ Index Pollutant
Not available.

Snow Depth

Station Depth Elevation

Earthquake Activity

City Distance Mag. Time & Date
Minimum magnitude displayed is 2.5.

Earthquake Activity

City Distance Mag. Time & Date
Minimum magnitude displayed is 2.5.

Coastal Water Temperatures

Place Temperature

Stations

Nearby Weather Stations

Station Location Temp. Windchill Dew Point Humidity Wind Precip. Elev Updated Type
                   

Watches & Warnings

There are currently no watches in effect.